Time;durP1;ratioP1;P1;durP2;ratioP2;P2;SDS_P1;SDS_P2;PMS_P1;PMS_P2;Temp;Humidity;BMP_temperature;BMP_pressure;BME280_temperature;BME280_humidity;BME280_pressure;Samples;Min_cycle;Max_cycle;Signal;HPM_P1;HPM_P2
2023/03/14 00:00:24;;;;;;;3.67;2.37;;;10.60;1.00;;;;;;5078259;28;20465;-65
2023/03/14 00:02:53;;;;;;;5.40;2.80;;;10.60;1.00;;;;;;5078910;28;20461;-65
2023/03/14 00:05:22;;;;;;;7.80;2.60;;;10.60;1.00;;;;;;5078897;28;20485;-65
2023/03/14 00:07:49;;;;;;;4.97;2.70;;;10.60;1.00;;;;;;5078376;28;20479;-65
2023/03/14 00:10:17;;;;;;;7.47;3.07;;;10.70;1.00;;;;;;5077704;28;20439;-65
2023/03/14 00:12:44;;;;;;;14.00;3.20;;;10.60;1.00;;;;;;5078196;28;20473;-65
2023/03/14 00:15:12;;;;;;;3.40;2.20;;;10.60;1.00;;;;;;5078194;28;20533;-65
2023/03/14 00:17:40;;;;;;;6.00;2.63;;;10.50;1.00;;;;;;5077385;28;20505;-65
2023/03/14 00:20:09;;;;;;;4.57;2.80;;;10.50;1.00;;;;;;5078089;28;20472;-65
2023/03/14 00:22:38;;;;;;;8.10;2.57;;;10.50;1.00;;;;;;5072910;28;20515;-65
2023/03/14 00:25:07;;;;;;;5.13;2.33;;;10.40;1.00;;;;;;5078137;28;20472;-65
2023/03/14 00:27:34;;;;;;;5.47;2.47;;;10.40;1.00;;;;;;5077506;28;20469;-65
2023/03/14 00:30:01;;;;;;;5.37;3.10;;;10.40;1.00;;;;;;5077604;28;20469;-65
2023/03/14 00:32:28;;;;;;;6.13;2.90;;;10.50;1.00;;;;;;5078279;28;20468;-65
2023/03/14 00:34:55;;;;;;;9.60;3.20;;;10.50;1.00;;;;;;5078320;28;20493;-65
2023/03/14 00:37:22;;;;;;;7.93;2.83;;;10.50;1.00;;;;;;5077379;28;20461;-65
2023/03/14 00:39:52;;;;;;;5.50;2.57;;;10.60;1.00;;;;;;5078222;28;20461;-65
2023/03/14 00:42:19;;;;;;;7.10;3.60;;;10.60;1.00;;;;;;5076857;28;20465;-65
2023/03/14 00:44:47;;;;;;;8.03;3.17;;;10.60;1.00;;;;;;5078316;28;20519;-65
2023/03/14 00:47:14;;;;;;;3.70;2.00;;;10.70;1.00;;;;;;5070503;28;20477;-65
2023/03/14 00:49:43;;;;;;;11.37;3.77;;;10.70;1.00;;;;;;5058334;28;20458;-65
2023/03/14 00:52:10;;;;;;;6.80;3.23;;;10.70;1.00;;;;;;5067760;28;20461;-64
2023/03/14 00:54:37;;;;;;;7.67;3.17;;;10.80;1.00;;;;;;5078276;28;20489;-65
2023/03/14 00:57:05;;;;;;;6.50;2.70;;;10.80;1.00;;;;;;5077475;28;20466;-65
2023/03/14 00:59:32;;;;;;;5.90;2.70;;;10.80;1.00;;;;;;5077870;28;20465;-69
2023/03/14 01:01:59;;;;;;;5.13;2.90;;;10.90;1.00;;;;;;5077503;28;20461;-65
2023/03/14 01:04:27;;;;;;;8.27;2.47;;;10.90;1.00;;;;;;5076954;28;20575;-65
2023/03/14 01:06:54;;;;;;;4.70;2.63;;;10.90;1.00;;;;;;5077920;28;20886;-65
2023/03/14 01:09:21;;;;;;;4.90;2.23;;;10.90;1.00;;;;;;5078485;28;20461;-67
2023/03/14 01:11:49;;;;;;;6.57;2.40;;;10.80;1.00;;;;;;5077255;28;20465;-63
2023/03/14 01:14:17;;;;;;;6.47;2.47;;;10.80;1.00;;;;;;5076714;28;20864;-62
2023/03/14 01:16:44;;;;;;;4.27;2.67;;;10.70;9.60;;;;;;5077590;28;20484;-63
2023/03/14 01:19:11;;;;;;;6.10;2.50;;;10.50;99.90;;;;;;5077227;28;20493;-62
2023/03/14 01:21:38;;;;;;;5.20;2.80;;;10.30;99.90;;;;;;5076641;28;20469;-64
2023/03/14 01:24:07;;;;;;;12.10;2.70;;;10.00;99.90;;;;;;5076046;28;20468;-63
2023/03/14 01:26:35;;;;;;;6.43;2.97;;;9.80;1.00;;;;;;5077220;28;20461;-63
2023/03/14 01:29:03;;;;;;;6.23;1.93;;;9.60;1.00;;;;;;5076752;28;20461;-66
2023/03/14 01:31:32;;;;;;;5.67;2.33;;;9.50;1.00;;;;;;5077434;28;20730;-66
2023/03/14 01:33:59;;;;;;;6.33;1.80;;;9.40;1.00;;;;;;5076259;28;20465;-66
2023/03/14 01:36:26;;;;;;;10.03;2.57;;;9.30;99.90;;;;;;5076693;28;20489;-65
2023/03/14 01:38:53;;;;;;;4.97;1.80;;;9.20;99.90;;;;;;5076911;28;20457;-62
2023/03/14 01:41:22;;;;;;;9.13;2.00;;;9.10;99.90;;;;;;5076452;28;20461;-63
2023/03/14 01:43:50;;;;;;;3.63;1.90;;;9.00;1.00;;;;;;5075765;28;20465;-65
2023/03/14 01:46:33;;;;;;;6.33;1.93;;;9.10;99.90;;;;;;5076385;28;20906;-64
2023/03/14 01:49:11;;;;;;;4.43;1.80;;;9.10;1.00;;;;;;5076532;28;20516;-63
2023/03/14 01:51:46;;;;;;;4.80;2.10;;;8.90;99.90;;;;;;5076258;28;20523;-64
2023/03/14 01:54:18;;;;;;;5.93;2.67;;;8.90;99.90;;;;;;5076756;28;20461;-64
2023/03/14 01:56:48;;;;;;;6.53;2.10;;;8.90;1.00;;;;;;5076441;28;20507;-65
2023/03/14 01:59:16;;;;;;;5.93;2.40;;;8.90;1.00;;;;;;5076212;28;20913;-66
2023/03/14 02:01:47;;;;;;;6.47;1.83;;;8.90;99.90;;;;;;5075754;28;20465;-66
2023/03/14 02:04:15;;;;;;;3.83;2.10;;;8.90;1.00;;;;;;5076638;28;20432;-67
2023/03/14 02:06:51;;;;;;;10.23;2.83;;;8.90;1.00;;;;;;5076769;28;20461;-67
2023/03/14 02:09:19;;;;;;;8.47;2.63;;;8.90;74.60;;;;;;5076174;28;20548;-68
2023/03/14 02:11:47;;;;;;;9.00;2.77;;;8.90;99.90;;;;;;5075421;28;20472;-67
2023/03/14 02:14:25;;;;;;;8.50;2.87;;;8.90;99.90;;;;;;5076347;28;20465;-68
2023/03/14 02:16:54;;;;;;;5.30;2.30;;;8.90;99.90;;;;;;5079638;28;20736;-67
2023/03/14 02:19:32;;;;;;;7.10;2.93;;;8.90;22.20;;;;;;5079703;28;20488;-66
2023/03/14 02:22:05;;;;;;;5.17;2.60;;;8.80;1.00;;;;;;5078693;28;20460;-67
2023/03/14 02:24:39;;;;;;;12.27;2.63;;;8.80;1.00;;;;;;5080167;28;20457;-67
2023/03/14 02:27:16;;;;;;;7.70;2.60;;;8.80;1.00;;;;;;5080021;28;20500;-67
2023/03/14 02:29:50;;;;;;;6.13;2.30;;;8.80;99.90;;;;;;5080062;28;20479;-67
2023/03/14 02:32:18;;;;;;;6.27;2.20;;;8.80;1.00;;;;;;5079671;28;20476;-67
2023/03/14 02:34:49;;;;;;;3.40;1.70;;;8.70;99.90;;;;;;5079459;28;20465;-64
2023/03/14 02:37:18;;;;;;;4.10;1.80;;;8.80;1.00;;;;;;5079006;28;20484;-64
2023/03/14 02:39:48;;;;;;;3.47;2.27;;;8.70;34.70;;;;;;5079554;28;20461;-68
2023/03/14 02:42:18;;;;;;;4.50;2.23;;;8.70;1.00;;;;;;5079128;28;20465;-67
2023/03/14 02:44:54;;;;;;;4.90;2.10;;;8.70;99.90;;;;;;5079875;28;20731;-67
2023/03/14 02:47:27;;;;;;;3.90;2.23;;;8.70;1.00;;;;;;5079174;28;20889;-65
2023/03/14 02:50:01;;;;;;;7.63;2.57;;;8.70;1.00;;;;;;5078124;28;20917;-67
2023/03/14 02:52:29;;;;;;;4.30;2.50;;;8.70;1.00;;;;;;5078575;28;20456;-67
2023/03/14 02:54:56;;;;;;;6.07;2.30;;;8.70;99.90;;;;;;5079273;28;20503;-66
2023/03/14 02:57:24;;;;;;;3.00;1.90;;;8.70;1.00;;;;;;5079242;28;20890;-66
2023/03/14 02:59:51;;;;;;;3.87;1.67;;;8.70;99.90;;;;;;5078128;28;20469;-66
2023/03/14 03:02:18;;;;;;;4.70;2.10;;;8.80;1.00;;;;;;5078346;28;20534;-64
2023/03/14 03:04:45;;;;;;;8.07;2.50;;;8.80;1.00;;;;;;5079139;28;20457;-66
2023/03/14 03:07:12;;;;;;;4.67;2.47;;;8.80;1.00;;;;;;5079167;28;20522;-65
2023/03/14 03:09:39;;;;;;;9.47;3.20;;;8.80;1.00;;;;;;5078314;28;20461;-66
2023/03/14 03:12:07;;;;;;;5.20;2.03;;;8.80;69.60;;;;;;5079142;28;20468;-66
2023/03/14 03:14:37;;;;;;;4.87;2.30;;;8.90;1.00;;;;;;5078602;28;20480;-66
2023/03/14 03:17:04;;;;;;;3.20;1.80;;;8.90;15.50;;;;;;5079034;28;20496;-67
2023/03/14 03:19:31;;;;;;;8.87;2.67;;;8.90;99.90;;;;;;5078139;28;20485;-66
2023/03/14 03:21:59;;;;;;;6.70;2.20;;;8.90;1.00;;;;;;5078223;28;20534;-67
2023/03/14 03:24:26;;;;;;;5.87;2.40;;;8.90;99.90;;;;;;5078047;28;20454;-67
2023/03/14 03:26:54;;;;;;;9.80;2.97;;;8.90;99.90;;;;;;5076756;28;20458;-67
2023/03/14 03:29:21;;;;;;;9.60;2.83;;;8.90;99.90;;;;;;5077328;28;20465;-67
2023/03/14 03:31:49;;;;;;;4.07;2.20;;;8.90;99.90;;;;;;5078222;28;20801;-68
2023/03/14 03:34:16;;;;;;;5.03;2.30;;;8.90;99.90;;;;;;5078128;28;20472;-67
2023/03/14 03:36:43;;;;;;;6.13;2.60;;;8.90;99.90;;;;;;5078331;28;20917;-65
2023/03/14 03:39:10;;;;;;;8.20;2.70;;;8.90;99.90;;;;;;5078449;28;20457;-64
2023/03/14 03:41:37;;;;;;;5.80;2.50;;;8.90;99.90;;;;;;5077265;28;20519;-64
2023/03/14 03:44:05;;;;;;;4.93;2.50;;;8.90;1.00;;;;;;5077826;28;20468;-64
2023/03/14 03:46:32;;;;;;;8.30;2.77;;;8.90;1.00;;;;;;5078984;28;20450;-63
2023/03/14 03:49:01;;;;;;;6.53;2.47;;;8.90;99.90;;;;;;5077892;28;20439;-63
2023/03/14 03:51:28;;;;;;;5.93;2.40;;;8.90;99.90;;;;;;5077929;28;20460;-62
2023/03/14 03:53:57;;;;;;;5.20;2.00;;;8.80;1.00;;;;;;5078327;28;20461;-63
2023/03/14 03:56:24;;;;;;;5.27;2.50;;;8.80;99.90;;;;;;5078048;28;20825;-63
2023/03/14 03:58:51;;;;;;;7.27;2.23;;;8.80;1.00;;;;;;5078778;28;20756;-64
2023/03/14 04:01:18;;;;;;;8.87;2.70;;;8.80;99.90;;;;;;5078622;28;20439;-63
2023/03/14 04:03:45;;;;;;;8.63;2.93;;;8.80;99.90;;;;;;5077293;28;20465;-64
2023/03/14 04:06:14;;;;;;;3.40;2.10;;;8.70;99.90;;;;;;5078055;28;20475;-65
2023/03/14 04:08:43;;;;;;;6.73;2.83;;;8.70;99.90;;;;;;5077660;28;20466;-63
2023/03/14 04:11:10;;;;;;;8.20;2.50;;;8.70;99.90;;;;;;5077943;28;20472;-63
2023/03/14 04:13:37;;;;;;;4.43;2.87;;;8.70;99.90;;;;;;5077102;28;20465;-63
2023/03/14 04:16:05;;;;;;;7.03;2.97;;;8.60;99.90;;;;;;5077123;28;20489;-63
2023/03/14 04:18:32;;;;;;;8.20;3.53;;;8.70;99.90;;;;;;5077635;28;20493;-64
2023/03/14 04:20:59;;;;;;;5.70;2.60;;;8.60;99.90;;;;;;5077441;28;20507;-63
2023/03/14 04:23:27;;;;;;;6.50;2.70;;;8.60;99.90;;;;;;5077250;28;20458;-63
2023/03/14 04:25:54;;;;;;;6.60;3.10;;;8.60;99.90;;;;;;5076982;28;20788;-64
2023/03/14 04:28:21;;;;;;;7.27;3.00;;;8.60;99.90;;;;;;5077520;28;20461;-64
2023/03/14 04:30:48;;;;;;;9.60;3.17;;;8.60;99.90;;;;;;5077506;28;20900;-64
2023/03/14 04:33:17;;;;;;;6.40;2.63;;;8.60;99.90;;;;;;5076340;28;20476;-65
2023/03/14 04:35:44;;;;;;;6.00;2.80;;;8.60;99.90;;;;;;5076014;28;20542;-64
2023/03/14 04:38:11;;;;;;;9.23;3.77;;;8.60;99.90;;;;;;5076952;28;20507;-63
2023/03/14 04:40:40;;;;;;;7.13;2.87;;;8.60;99.90;;;;;;5077415;28;20465;-62
2023/03/14 04:43:08;;;;;;;6.80;2.70;;;8.50;99.90;;;;;;5077452;28;20469;-62
2023/03/14 04:45:35;;;;;;;7.50;3.10;;;8.50;99.90;;;;;;5076021;28;20468;-62
2023/03/14 04:48:02;;;;;;;10.33;3.10;;;8.60;99.90;;;;;;5076915;28;20461;-63
2023/03/14 04:50:29;;;;;;;8.70;3.23;;;8.50;99.90;;;;;;5076798;28;20461;-63
2023/03/14 04:52:56;;;;;;;12.13;3.47;;;8.50;99.90;;;;;;5077352;28;20466;-63
2023/03/14 04:55:23;;;;;;;5.40;2.57;;;8.50;99.90;;;;;;5076825;28;20894;-63
2023/03/14 04:57:52;;;;;;;6.63;2.90;;;8.50;99.90;;;;;;5076802;28;20489;-65
2023/03/14 05:00:19;;;;;;;10.20;3.13;;;8.60;99.90;;;;;;5076705;28;20458;-60
2023/03/14 05:02:46;;;;;;;8.20;2.67;;;8.60;99.90;;;;;;5076398;28;21172;-64
2023/03/14 05:05:13;;;;;;;5.93;2.63;;;8.60;99.90;;;;;;5075947;28;20803;-65
2023/03/14 05:07:40;;;;;;;11.23;3.27;;;8.60;99.90;;;;;;5075214;28;20472;-63
2023/03/14 05:10:08;;;;;;;9.27;3.03;;;8.60;99.90;;;;;;5075688;28;20461;-64
2023/03/14 05:12:35;;;;;;;7.27;2.70;;;8.60;99.90;;;;;;5075895;28;20461;-64
2023/03/14 05:15:04;;;;;;;6.70;2.47;;;8.60;99.90;;;;;;5076219;28;20461;-65
2023/03/14 05:17:33;;;;;;;4.60;2.67;;;8.50;99.90;;;;;;5076391;28;20508;-65
2023/03/14 05:20:00;;;;;;;5.40;2.63;;;8.50;99.90;;;;;;5076233;28;20454;-64
2023/03/14 05:22:27;;;;;;;6.30;2.50;;;8.60;99.90;;;;;;5075606;28;20464;-64
2023/03/14 05:24:56;;;;;;;5.80;2.77;;;8.60;99.90;;;;;;5073026;28;20901;-64
2023/03/14 05:27:23;;;;;;;4.20;2.10;;;8.60;99.90;;;;;;5074997;28;20504;-64
2023/03/14 05:29:50;;;;;;;6.20;3.00;;;8.60;99.90;;;;;;5074208;28;20453;-65
2023/03/14 05:32:19;;;;;;;4.77;2.07;;;8.60;99.90;;;;;;5075396;28;20439;-64
2023/03/14 05:34:46;;;;;;;8.97;2.40;;;8.50;99.90;;;;;;5075082;28;20953;-63
2023/03/14 05:37:13;;;;;;;8.77;2.77;;;8.60;99.90;;;;;;5075907;28;20489;-64
2023/03/14 05:39:40;;;;;;;10.23;2.77;;;8.60;99.90;;;;;;5076549;28;20467;-64
2023/03/14 05:42:07;;;;;;;5.17;2.60;;;8.50;99.90;;;;;;5066646;28;20470;-65
2023/03/14 05:44:34;;;;;;;6.43;2.40;;;8.50;99.90;;;;;;5056010;28;20816;-66
2023/03/14 05:47:01;;;;;;;4.30;2.10;;;8.60;99.90;;;;;;5056194;28;20462;-63
2023/03/14 05:49:29;;;;;;;4.67;2.30;;;8.60;99.90;;;;;;5069101;28;21089;-62
2023/03/14 05:51:56;;;;;;;5.10;2.50;;;8.60;99.90;;;;;;5079326;28;20797;-65
2023/03/14 05:54:23;;;;;;;7.33;2.20;;;8.60;99.90;;;;;;5078473;28;20493;-64
2023/03/14 05:56:50;;;;;;;6.20;2.77;;;8.60;99.90;;;;;;5080008;28;20492;-63
2023/03/14 05:59:17;;;;;;;6.50;2.33;;;8.60;99.90;;;;;;5077751;28;20444;-63
2023/03/14 06:01:44;;;;;;;4.60;1.97;;;8.60;99.90;;;;;;5078194;28;20964;-65
2023/03/14 06:04:11;;;;;;;5.10;2.50;;;8.60;99.90;;;;;;5078812;28;20474;-64
2023/03/14 06:06:40;;;;;;;8.03;2.10;;;8.50;99.90;;;;;;5078662;28;20457;-64
2023/03/14 06:09:07;;;;;;;4.40;2.10;;;8.60;99.90;;;;;;5077823;28;20524;-65
2023/03/14 06:11:34;;;;;;;3.70;2.00;;;8.50;99.90;;;;;;5077489;28;20478;-65
2023/03/14 06:14:01;;;;;;;4.27;2.00;;;8.50;99.90;;;;;;5078554;28;20468;-64
2023/03/14 06:16:28;;;;;;;8.80;6.40;;;8.50;99.90;;;;;;5080360;28;20489;-64
2023/03/14 06:18:55;;;;;;;15.00;8.90;;;8.60;99.90;;;;;;5079129;28;20488;-65
2023/03/14 06:21:22;;;;;;;7.30;4.40;;;8.50;99.90;;;;;;5080019;28;20465;-65
2023/03/14 06:23:51;;;;;;;8.97;6.03;;;8.60;99.90;;;;;;5079232;28;20460;-64
2023/03/14 06:26:18;;;;;;;5.87;2.30;;;8.60;99.90;;;;;;5078748;28;20956;-64
2023/03/14 06:28:45;;;;;;;5.17;2.87;;;8.60;99.90;;;;;;5078897;28;20465;-65
2023/03/14 06:31:12;;;;;;;10.20;7.40;;;8.60;99.90;;;;;;5078505;28;20890;-64
2023/03/14 06:33:39;;;;;;;2.93;1.90;;;8.60;99.90;;;;;;5077534;28;20480;-62
2023/03/14 06:36:08;;;;;;;3.00;2.00;;;8.60;99.90;;;;;;5075701;28;20553;-62
2023/03/14 06:38:35;;;;;;;2.90;2.00;;;8.70;99.90;;;;;;5076185;28;20875;-63
2023/03/14 06:41:06;;;;;;;2.50;1.60;;;8.70;99.90;;;;;;5077159;28;20515;-63
2023/03/14 06:43:33;;;;;;;3.47;2.30;;;8.70;99.90;;;;;;5078202;28;20461;-64
2023/03/14 06:46:01;;;;;;;3.23;2.10;;;8.70;99.90;;;;;;5077347;28;20534;-64
2023/03/14 06:48:28;;;;;;;4.00;1.80;;;8.70;99.90;;;;;;5077840;28;20925;-64
2023/03/14 06:50:55;;;;;;;3.20;1.80;;;8.70;99.90;;;;;;5076938;28;20461;-64
2023/03/14 06:53:22;;;;;;;2.17;1.53;;;8.70;99.90;;;;;;5078147;28;20472;-65
2023/03/14 06:55:49;;;;;;;2.80;1.40;;;8.70;99.90;;;;;;5078879;28;20461;-65
2023/03/14 06:58:17;;;;;;;2.37;1.80;;;8.70;99.90;;;;;;5079711;28;20485;-62
2023/03/14 07:00:45;;;;;;;3.27;1.50;;;8.70;99.90;;;;;;5078230;28;20472;-65
2023/03/14 07:03:14;;;;;;;3.20;1.60;;;8.70;99.90;;;;;;5076534;28;20469;-65
2023/03/14 07:05:41;;;;;;;2.40;1.67;;;8.70;99.90;;;;;;5075992;28;20454;-65
2023/03/14 07:08:09;;;;;;;5.17;1.87;;;8.70;99.90;;;;;;5077619;28;20909;-64
2023/03/14 07:10:36;;;;;;;3.07;1.53;;;8.70;99.90;;;;;;5076662;28;20468;-64
2023/03/14 07:13:03;;;;;;;4.70;1.90;;;8.70;99.90;;;;;;5077856;28;20465;-64
2023/03/14 07:15:32;;;;;;;2.80;1.77;;;8.70;99.90;;;;;;5078038;28;20480;-64
2023/03/14 07:17:59;;;;;;;2.77;1.90;;;8.80;99.90;;;;;;5078663;28;20926;-65
2023/03/14 07:20:26;;;;;;;4.20;1.80;;;8.80;99.90;;;;;;5079213;28;20472;-65
2023/03/14 07:22:54;;;;;;;2.40;1.70;;;8.80;99.90;;;;;;5078488;28;20462;-65
2023/03/14 07:25:21;;;;;;;3.03;1.90;;;8.70;99.90;;;;;;5077909;28;20532;-65
2023/03/14 07:27:48;;;;;;;2.53;1.93;;;8.80;99.90;;;;;;5077186;28;20462;-66
2023/03/14 07:30:15;;;;;;;3.67;1.70;;;8.70;99.90;;;;;;5078334;28;20493;-65
2023/03/14 07:32:44;;;;;;;2.87;1.70;;;8.80;99.90;;;;;;5078622;28;20461;-65
2023/03/14 07:35:11;;;;;;;4.47;2.07;;;8.90;99.90;;;;;;5077702;28;20461;-64
2023/03/14 07:37:38;;;;;;;2.37;1.50;;;8.90;99.90;;;;;;5077165;28;20489;-64
2023/03/14 07:40:06;;;;;;;2.20;1.50;;;8.80;99.90;;;;;;5078548;28;20461;-64
2023/03/14 07:42:33;;;;;;;3.13;1.90;;;8.90;99.90;;;;;;5077938;28;20495;-65
2023/03/14 07:45:00;;;;;;;2.80;1.90;;;8.90;99.90;;;;;;5078886;28;20461;-64
2023/03/14 07:47:27;;;;;;;2.90;2.30;;;9.00;99.90;;;;;;5078155;28;20454;-63
2023/03/14 07:49:56;;;;;;;4.73;2.10;;;8.90;99.90;;;;;;5078094;28;20457;-65
2023/03/14 07:52:24;;;;;;;3.73;1.80;;;9.00;99.90;;;;;;5077800;28;20469;-65
2023/03/14 07:54:51;;;;;;;3.00;2.33;;;9.00;99.90;;;;;;5078379;28;20461;-62
2023/03/14 07:57:18;;;;;;;3.03;2.10;;;8.90;99.90;;;;;;5076210;28;20481;-65
2023/03/14 07:59:45;;;;;;;3.13;1.97;;;8.90;99.90;;;;;;5076717;28;20829;-65
2023/03/14 08:02:12;;;;;;;2.47;2.10;;;9.00;99.90;;;;;;5077594;28;20469;-65
2023/03/14 08:04:40;;;;;;;3.90;2.30;;;9.10;99.90;;;;;;5078029;28;20886;-65
2023/03/14 08:07:09;;;;;;;3.13;2.37;;;9.10;99.90;;;;;;5073334;28;20480;-63
2023/03/14 08:09:36;;;;;;;2.47;1.80;;;9.20;99.90;;;;;;5072704;28;20484;-64
2023/03/14 08:12:03;;;;;;;3.80;2.13;;;9.20;99.90;;;;;;5073373;28;20804;-64
2023/03/14 08:14:30;;;;;;;2.30;1.80;;;9.40;99.90;;;;;;5075063;28;20445;-63
2023/03/14 08:16:58;;;;;;;2.70;1.80;;;9.40;99.90;;;;;;5074728;28;20866;-64
2023/03/14 08:19:25;;;;;;;3.00;2.10;;;9.30;99.90;;;;;;5074278;28;20808;-65
2023/03/14 08:21:52;;;;;;;3.07;1.83;;;9.30;99.90;;;;;;5075229;28;20480;-65
2023/03/14 08:24:21;;;;;;;2.57;2.17;;;9.30;99.90;;;;;;5075580;28;20469;-65
2023/03/14 08:26:48;;;;;;;2.77;2.00;;;9.30;99.90;;;;;;5075918;28;20476;-63
2023/03/14 08:29:15;;;;;;;3.97;2.20;;;9.40;99.90;;;;;;5075733;28;20540;-64
2023/03/14 08:31:42;;;;;;;3.40;2.80;;;9.30;99.90;;;;;;5075643;28;20959;-65
2023/03/14 08:34:09;;;;;;;3.20;2.80;;;9.40;99.90;;;;;;5076500;28;20468;-65
2023/03/14 08:36:36;;;;;;;3.07;2.77;;;9.40;99.90;;;;;;5077588;28;20464;-65
2023/03/14 08:39:06;;;;;;;3.37;2.73;;;9.40;99.90;;;;;;5077773;28;20522;-65
2023/03/14 08:41:39;;;;;;;3.20;2.67;;;9.50;99.90;;;;;;5077174;28;20465;-65
2023/03/14 08:44:07;;;;;;;3.63;3.30;;;9.50;99.90;;;;;;5076807;28;20468;-65
2023/03/14 08:46:35;;;;;;;3.23;2.83;;;9.60;99.90;;;;;;5056166;28;20913;-64
2023/03/14 08:49:02;;;;;;;3.17;2.87;;;9.60;99.90;;;;;;5055780;28;20782;-65
2023/03/14 08:51:29;;;;;;;3.47;2.73;;;9.70;99.90;;;;;;5055048;28;20879;-65
2023/03/14 08:53:56;;;;;;;3.00;2.70;;;9.70;99.90;;;;;;5072586;28;20468;-65
2023/03/14 08:56:23;;;;;;;3.50;2.90;;;9.70;99.90;;;;;;5076664;28;20468;-64
2023/03/14 08:58:52;;;;;;;3.77;3.10;;;9.80;99.90;;;;;;5075587;28;21006;-66
2023/03/14 09:01:20;;;;;;;3.50;3.10;;;9.80;99.90;;;;;;5056554;28;20465;-66
2023/03/14 09:03:47;;;;;;;3.30;3.00;;;9.80;99.90;;;;;;5055112;28;20497;-64
2023/03/14 09:06:17;;;;;;;4.87;3.40;;;9.90;99.90;;;;;;5056391;28;20462;-63
2023/03/14 09:08:45;;;;;;;3.00;2.70;;;10.00;99.90;;;;;;5057087;28;20472;-65
2023/03/14 09:11:12;;;;;;;3.83;3.07;;;10.00;99.90;;;;;;5056878;28;20490;-62
2023/03/14 09:13:39;;;;;;;3.60;3.30;;;10.10;99.90;;;;;;5055898;28;20891;-65
2023/03/14 09:16:08;;;;;;;3.43;2.40;;;10.30;99.90;;;;;;5056939;28;20465;-65
2023/03/14 09:18:36;;;;;;;4.17;2.67;;;10.30;99.90;;;;;;5056167;28;20506;-64
2023/03/14 09:21:03;;;;;;;4.70;2.70;;;10.30;99.90;;;;;;5056914;28;20466;-65
2023/03/14 09:23:30;;;;;;;3.70;2.50;;;10.30;99.90;;;;;;5057284;28;20863;-66
2023/03/14 09:25:57;;;;;;;2.60;1.90;;;10.30;99.90;;;;;;5060140;28;20480;-65
2023/03/14 09:28:24;;;;;;;2.70;2.10;;;10.20;99.90;;;;;;5061571;28;20462;-66
2023/03/14 09:30:52;;;;;;;4.23;2.60;;;10.20;99.90;;;;;;5062071;28;20462;-65
2023/03/14 09:33:20;;;;;;;3.53;3.00;;;10.10;99.90;;;;;;5060836;28;20474;-66
2023/03/14 09:35:47;;;;;;;3.37;2.20;;;10.10;99.90;;;;;;5060859;28;20461;-66
2023/03/14 09:38:15;;;;;;;2.80;2.37;;;10.00;99.90;;;;;;5061592;28;20505;-64
2023/03/14 09:40:42;;;;;;;3.43;2.60;;;9.80;99.90;;;;;;5061680;28;20462;-65
2023/03/14 09:43:12;;;;;;;3.00;2.47;;;9.70;99.90;;;;;;5061421;28;20473;-70
2023/03/14 09:45:42;;;;;;;4.80;2.73;;;9.70;99.90;;;;;;5061151;28;20458;-69
2023/03/14 09:48:16;;;;;;;3.07;2.77;;;9.50;99.90;;;;;;5075331;28;20508;-66
2023/03/14 09:50:48;;;;;;;2.80;2.50;;;9.50;99.90;;;;;;5079766;28;20485;-66
2023/03/14 09:53:18;;;;;;;2.97;2.40;;;9.50;99.90;;;;;;5080914;28;20902;-69
2023/03/14 09:55:48;;;;;;;2.40;1.50;;;9.50;99.90;;;;;;5080872;28;20461;-66
2023/03/14 09:58:19;;;;;;;2.10;1.70;;;9.10;99.90;;;;;;5079973;28;20489;-67
2023/03/14 10:00:46;;;;;;;2.00;1.60;;;8.80;99.90;;;;;;5080509;28;20533;-66
2023/03/14 10:03:27;;;;;;;2.10;1.70;;;8.80;99.90;;;;;;5080557;28;20468;-67
2023/03/14 10:05:56;;;;;;;2.00;1.60;;;8.60;1.00;;;;;;5080197;28;20483;-66
2023/03/14 10:08:24;;;;;;;2.20;1.50;;;8.30;50.00;;;;;;5079792;28;20457;-66
2023/03/14 10:10:51;;;;;;;3.00;1.83;;;8.30;1.00;;;;;;5080235;28;20468;-66
2023/03/14 10:13:21;;;;;;;1.90;1.50;;;8.30;99.90;;;;;;5080703;28;20472;-67
2023/03/14 10:15:52;;;;;;;2.00;1.60;;;8.30;1.00;;;;;;5080164;28;20880;-67
2023/03/14 10:18:19;;;;;;;3.27;2.13;;;8.40;1.00;;;;;;5078637;28;20584;-66
2023/03/14 10:21:01;;;;;;;2.90;2.50;;;8.30;99.90;;;;;;5078977;28;20747;-67
2023/03/14 10:23:32;;;;;;;3.30;3.00;;;8.20;99.90;;;;;;5078717;28;20461;-66
2023/03/14 10:26:09;;;;;;;6.87;3.43;;;8.30;99.90;;;;;;5078723;28;20511;-66
2023/03/14 10:28:41;;;;;;;2.90;2.50;;;8.30;99.90;;;;;;5077958;28;20428;-67
2023/03/14 10:31:08;;;;;;;2.80;2.43;;;8.30;99.90;;;;;;5062408;28;20443;-67
2023/03/14 10:33:37;;;;;;;2.93;2.30;;;8.20;1.00;;;;;;5077767;28;20496;-67
2023/03/14 10:36:07;;;;;;;2.93;2.53;;;8.10;1.00;;;;;;5078147;28;20458;-67
2023/03/14 10:38:37;;;;;;;2.60;2.10;;;8.00;42.70;;;;;;5078752;28;20489;-68
2023/03/14 10:41:17;;;;;;;2.80;2.50;;;7.90;99.90;;;;;;5077098;28;20473;-67
2023/03/14 10:43:44;;;;;;;3.47;2.73;;;7.80;99.90;;;;;;5058175;28;20471;-65
2023/03/14 10:46:17;;;;;;;4.60;2.70;;;7.80;1.00;;;;;;5061090;28;20532;-66
2023/03/14 10:48:45;;;;;;;4.17;3.30;;;7.70;1.00;;;;;;5077624;28;20461;-68
2023/03/14 10:51:20;;;;;;;3.63;3.00;;;7.70;99.90;;;;;;5077460;28;20465;-65
2023/03/14 10:53:50;;;;;;;3.33;3.00;;;7.80;1.00;;;;;;5076075;28;20472;-66
2023/03/14 10:56:19;;;;;;;3.67;3.30;;;7.80;1.00;;;;;;5073228;28;20466;-66
2023/03/14 10:58:48;;;;;;;4.57;3.40;;;7.80;1.00;;;;;;5078654;28;20485;-66
2023/03/14 11:01:38;;;;;;;4.40;3.97;;;7.80;1.00;;;;;;5076985;28;20469;-65
2023/03/14 11:04:15;;;;;;;6.03;5.07;;;7.90;1.00;;;;;;5076274;28;20465;-66
2023/03/14 11:06:45;;;;;;;4.90;4.33;;;7.90;1.00;;;;;;5075769;28;20465;-67
2023/03/14 11:09:22;;;;;;;8.80;5.27;;;7.70;1.00;;;;;;5076318;28;20732;-65
2023/03/14 11:11:49;;;;;;;7.20;5.10;;;7.70;37.30;;;;;;5075616;28;20449;-67
2023/03/14 11:14:23;;;;;;;4.30;3.90;;;7.40;99.90;;;;;;5076009;28;20445;-68
2023/03/14 11:16:57;;;;;;;3.43;2.73;;;7.50;99.90;;;;;;5075888;28;20457;-67
2023/03/14 11:19:39;;;;;;;2.97;2.43;;;7.20;99.90;;;;;;5031380;28;1302162;-67
2023/03/14 11:22:18;;;;;;;4.87;2.57;;;7.10;99.90;;;;;;5078061;28;20203;-68
2023/03/14 11:25:01;;;;;;;4.77;2.33;;;6.90;27.40;;;;;;5078756;28;20461;-68
2023/03/14 11:27:34;;;;;;;3.90;2.17;;;6.90;99.90;;;;;;5079167;28;20472;-67
2023/03/14 11:30:06;;;;;;;2.87;2.10;;;6.90;2.10;;;;;;5078244;28;20449;-66
2023/03/14 11:32:44;;;;;;;2.97;1.67;;;6.90;1.00;;;;;;5078831;28;20875;-66
2023/03/14 11:35:21;;;;;;;2.40;1.90;;;6.80;99.90;;;;;;5078129;28;20938;-66
2023/03/14 11:37:53;;;;;;;2.80;1.90;;;6.90;99.90;;;;;;5078674;28;20497;-67
2023/03/14 11:40:24;;;;;;;3.77;2.30;;;7.10;99.90;;;;;;5078039;28;20477;-67
2023/03/14 11:42:59;;;;;;;4.30;2.80;;;6.80;1.00;;;;;;5078902;28;20507;-66
2023/03/14 11:45:31;;;;;;;3.70;2.80;;;6.90;1.00;;;;;;5078654;28;20435;-66
2023/03/14 11:48:15;;;;;;;3.60;3.00;;;7.10;99.90;;;;;;5077489;28;20461;-66
2023/03/14 11:50:44;;;;;;;3.70;2.93;;;6.70;99.90;;;;;;5076688;28;20468;-66
2023/03/14 11:53:17;;;;;;;3.73;2.17;;;6.60;99.90;;;;;;5077890;28;20457;-66
2023/03/14 11:55:46;;;;;;;2.80;2.37;;;6.50;99.90;;;;;;5077549;28;20461;-66
2023/03/14 11:58:20;;;;;;;5.60;2.40;;;6.60;1.00;;;;;;5078407;28;20496;-66
2023/03/14 12:00:49;;;;;;;3.77;2.40;;;6.70;99.90;;;;;;5077573;28;20464;-66
2023/03/14 12:03:24;;;;;;;2.67;2.17;;;6.80;99.90;;;;;;5078185;28;20462;-65
2023/03/14 12:06:01;;;;;;;2.70;1.73;;;6.80;99.90;;;;;;5078083;28;20460;-66
2023/03/14 12:08:40;;;;;;;3.10;2.23;;;6.60;99.90;;;;;;5078066;28;20464;-66
2023/03/14 12:11:14;;;;;;;2.40;1.80;;;6.50;61.70;;;;;;5078146;28;20465;-65
2023/03/14 12:13:42;;;;;;;2.67;2.10;;;6.70;99.90;;;;;;5077916;28;20461;-64
2023/03/14 12:16:34;;;;;;;3.00;2.60;;;6.70;97.40;;;;;;5077734;28;20530;-66
2023/03/14 12:19:37;;;;;;;3.17;2.33;;;6.60;1.00;;;;;;5076659;28;20504;-66
2023/03/14 12:22:27;;;;;;;2.90;2.30;;;6.40;1.00;;;;;;5074098;28;20461;-66
2023/03/14 12:24:59;;;;;;;4.97;2.77;;;6.20;22.30;;;;;;5075798;28;20473;-65
2023/03/14 12:27:47;;;;;;;2.70;2.13;;;6.20;99.90;;;;;;5077942;28;20493;-66
2023/03/14 12:30:33;;;;;;;2.70;2.07;;;6.10;77.10;;;;;;5077743;28;20922;-66
2023/03/14 12:33:33;;;;;;;3.43;2.17;;;6.00;99.90;;;;;;5077438;28;20832;-67
2023/03/14 12:36:03;;;;;;;3.13;2.20;;;6.00;30.90;;;;;;5059430;28;21029;-66
2023/03/14 12:38:49;;;;;;;4.80;2.50;;;5.80;98.40;;;;;;5076550;28;20596;-66
2023/03/14 12:41:20;;;;;;;4.33;2.40;;;5.80;99.90;;;;;;5074552;28;20568;-66
2023/03/14 12:43:48;;;;;;;7.60;2.77;;;5.90;99.90;;;;;;5076863;28;20497;-65
2023/03/14 12:46:25;;;;;;;3.43;2.20;;;5.90;88.70;;;;;;5075887;28;20909;-64
2023/03/14 12:48:58;;;;;;;3.23;1.90;;;6.20;1.00;;;;;;5075349;28;20472;-66
2023/03/14 12:51:34;;;;;;;5.30;3.10;;;6.70;7.40;;;;;;5074564;28;21018;-65
2023/03/14 12:54:28;;;;;;;3.33;1.90;;;7.00;1.00;;;;;;5074716;28;20472;-64
2023/03/14 12:57:25;;;;;;;4.83;2.10;;;7.60;1.00;;;;;;5075360;28;20456;-65
2023/03/14 12:59:56;;;;;;;2.80;1.67;;;8.00;1.00;;;;;;5072989;28;20477;-65
2023/03/14 13:02:26;;;;;;;6.83;2.60;;;8.20;1.00;;;;;;5077061;28;20879;-64
2023/03/14 13:05:02;;;;;;;7.53;2.37;;;9.00;1.00;;;;;;5077388;28;20457;-64
2023/03/14 13:07:57;;;;;;;6.43;3.10;;;9.10;1.00;;;;;;5077718;28;20457;-64
2023/03/14 13:10:24;;;;;;;6.70;2.50;;;8.90;99.90;;;;;;5076203;28;20458;-64